PWSweather.com
Personal Weather Stations
Station Observations
SHAHALMS1
Eftra, Falkenberg, HA

EftraFalkenberg, HA

Lat: 56.85, Lon: 12.65

Elevation: 140

Station Type:

http://hem.passagen.se/risarp101

High Low Average
Temperature 51.3°F10.7°C 32.4°F0.2°C 41.8°F5.4°C
Dew Point 27.4°F-2.6°C 14.1°F-9.9°C 22.1°F-5.5°C
Winds 18.6 mph 29.9 kmh 2.4 mph 3.9 kmh 10.0 mph ESE16.1 kmh ESE
Wind Gusts 44.0 mph70.8 kmh 7.9 mph12.7 kmh 22.0 mph35.4 kmh
Humidity 69% 30% 47%
Pressure 30.24 in1024.0 mb 29.80 in1009.1 mb -
Precipitation 0.00 in0.0 mm - -
Hour Temp Dew Point Humidity Winds Wind Gusts Pressure Precip Precip Rate Daily Precip Total
12:00 AM 33.6°F0.9°C 22.0°F-5.6°C 62% 5.3 mph SE8.5 kmh SE 13.6 mph21.9 kmh 30.24 in1024.0 mb 0.00 in0.0 mm 0.00 in0.0 mm 0.00 in0.0 mm
12:16 AM 33.3°F0.7°C 21.6°F-5.8°C 62% 3.4 mph SE5.5 kmh SE 9.3 mph15.0 kmh 30.24 in1024.0 mb 0.00 in0.0 mm 0.00 in0.0 mm 0.00 in0.0 mm
12:31 AM 32.9°F0.5°C 21.3°F-5.9°C 62% 2.9 mph SE4.7 kmh SE 9.7 mph15.6 kmh 30.24 in1024.0 mb 0.00 in0.0 mm 0.00 in0.0 mm 0.00 in0.0 mm
12:45 AM 32.9°F0.5°C 21.3°F-5.9°C 62% 4.1 mph ESE6.6 kmh ESE 14.0 mph22.5 kmh 30.21 in1023.0 mb 0.00 in0.0 mm 0.00 in0.0 mm 0.00 in0.0 mm
01:00 AM 32.7°F0.4°C 20.7°F-6.3°C 61% 2.4 mph E3.9 kmh E 7.9 mph12.7 kmh 30.21 in1023.0 mb 0.00 in0.0 mm 0.00 in0.0 mm 0.00 in0.0 mm
01:15 AM 32.4°F0.2°C 20.4°F-6.4°C 61% 2.8 mph E4.5 kmh E 12.2 mph19.6 kmh 30.18 in1022.0 mb 0.00 in0.0 mm 0.00 in0.0 mm 0.00 in0.0 mm
01:30 AM 32.5°F0.3°C 20.6°F-6.3°C 61% 3.1 mph E5.0 kmh E 10.0 mph16.1 kmh 30.18 in1022.0 mb 0.00 in0.0 mm 0.00 in0.0 mm 0.00 in0.0 mm
01:45 AM 32.7°F0.4°C 20.7°F-6.3°C 61% 4.6 mph E7.4 kmh E 11.8 mph19.0 kmh 30.15 in1021.0 mb 0.00 in0.0 mm 0.00 in0.0 mm 0.00 in0.0 mm
02:00 AM 32.9°F0.5°C 20.9°F-6.2°C 61% 5.1 mph ESE8.2 kmh ESE 14.0 mph22.5 kmh 30.18 in1022.0 mb 0.00 in0.0 mm 0.00 in0.0 mm 0.00 in0.0 mm
02:15 AM 33.1°F0.6°C 21.1°F-6.1°C 61% 5.2 mph SE8.4 kmh SE 11.5 mph18.5 kmh 30.18 in1022.0 mb 0.00 in0.0 mm 0.00 in0.0 mm 0.00 in0.0 mm
02:30 AM 33.4°F0.8°C 21.8°F-5.7°C 62% 6.1 mph ESE9.8 kmh ESE 11.8 mph19.0 kmh 30.18 in1022.0 mb 0.00 in0.0 mm 0.00 in0.0 mm 0.00 in0.0 mm
02:45 AM 33.6°F0.9°C 22.4°F-5.3°C 63% 6.8 mph ESE10.9 kmh ESE 14.3 mph23.0 kmh 30.18 in1022.0 mb 0.00 in0.0 mm 0.00 in0.0 mm 0.00 in0.0 mm
03:00 AM 33.8°F1.0°C 22.9°F-5.1°C 64% 8.1 mph ESE13.0 kmh ESE 16.8 mph27.0 kmh 30.18 in1022.0 mb 0.00 in0.0 mm 0.00 in0.0 mm 0.00 in0.0 mm
03:15 AM 33.6°F0.9°C 23.1°F-4.9°C 65% 7.4 mph E11.9 kmh E 13.6 mph21.9 kmh 30.15 in1021.0 mb 0.00 in0.0 mm 0.00 in0.0 mm 0.00 in0.0 mm
03:30 AM 33.6°F0.9°C 23.5°F-4.7°C 66% 7.0 mph ESE11.3 kmh ESE 15.4 mph24.8 kmh 30.15 in1021.0 mb 0.00 in0.0 mm 0.00 in0.0 mm 0.00 in0.0 mm
03:45 AM 33.4°F0.8°C 23.7°F-4.6°C 67% 7.8 mph E12.6 kmh E 12.9 mph20.8 kmh 30.15 in1021.0 mb 0.00 in0.0 mm 0.00 in0.0 mm 0.00 in0.0 mm
04:00 AM 33.3°F0.7°C 23.8°F-4.6°C 68% 7.2 mph E11.6 kmh E 10.4 mph16.7 kmh 30.15 in1021.0 mb 0.00 in0.0 mm 0.00 in0.0 mm 0.00 in0.0 mm
04:15 AM 33.4°F0.8°C 24.4°F-4.2°C 69% 8.3 mph E13.4 kmh E 15.7 mph25.3 kmh 30.15 in1021.0 mb 0.00 in0.0 mm 0.00 in0.0 mm 0.00 in0.0 mm
04:30 AM 33.4°F0.8°C 24.4°F-4.2°C 69% 7.5 mph E12.1 kmh E 12.9 mph20.8 kmh 30.15 in1021.0 mb 0.00 in0.0 mm 0.00 in0.0 mm 0.00 in0.0 mm
04:45 AM 33.4°F0.8°C 24.4°F-4.2°C 69% 4.1 mph E6.6 kmh E 9.7 mph15.6 kmh 30.12 in1020.0 mb 0.00 in0.0 mm 0.00 in0.0 mm 0.00 in0.0 mm
05:00 AM 33.4°F0.8°C 24.4°F-4.2°C 69% 5.1 mph E8.2 kmh E 12.5 mph20.1 kmh 30.12 in1020.0 mb 0.00 in0.0 mm 0.00 in0.0 mm 0.00 in0.0 mm
05:15 AM 33.8°F1.0°C 24.4°F-4.2°C 68% 6.2 mph ESE10.0 kmh ESE 13.6 mph21.9 kmh 30.12 in1020.0 mb 0.00 in0.0 mm 0.00 in0.0 mm 0.00 in0.0 mm
05:30 AM 34.2°F1.2°C 24.3°F-4.3°C 67% 6.9 mph ESE11.1 kmh ESE 15.0 mph24.1 kmh 30.12 in1020.0 mb 0.00 in0.0 mm 0.00 in0.0 mm 0.00 in0.0 mm
05:45 AM 34.3°F1.3°C 24.2°F-4.3°C 66% 6.1 mph ESE9.8 kmh ESE 15.0 mph24.1 kmh 30.12 in1020.0 mb 0.00 in0.0 mm 0.00 in0.0 mm 0.00 in0.0 mm
06:00 AM 34.7°F1.5°C 24.5°F-4.2°C 66% 6.3 mph ESE10.1 kmh ESE 14.0 mph22.5 kmh 30.09 in1019.0 mb 0.00 in0.0 mm 0.00 in0.0 mm 0.00 in0.0 mm
06:15 AM 35.1°F1.7°C 24.5°F-4.2°C 65% 4.0 mph SE6.4 kmh SE 11.8 mph19.0 kmh 30.09 in1019.0 mb 0.00 in0.0 mm 0.00 in0.0 mm 0.00 in0.0 mm
06:30 AM 35.1°F1.7°C 24.5°F-4.2°C 65% 3.9 mph E6.3 kmh E 12.2 mph19.6 kmh 30.09 in1019.0 mb 0.00 in0.0 mm 0.00 in0.0 mm 0.00 in0.0 mm
06:45 AM 36.0°F2.2°C 25.0°F-3.9°C 64% 5.4 mph E8.7 kmh E 11.8 mph19.0 kmh 30.12 in1020.0 mb 0.00 in0.0 mm 0.00 in0.0 mm 0.00 in0.0 mm
07:00 AM 36.0°F2.2°C 25.0°F-3.9°C 64% 6.9 mph ESE11.1 kmh ESE 15.7 mph25.3 kmh 30.12 in1020.0 mb 0.00 in0.0 mm 0.00 in0.0 mm 0.00 in0.0 mm
07:15 AM 37.9°F3.3°C 25.7°F-3.5°C 61% 7.2 mph ESE11.6 kmh ESE 12.9 mph20.8 kmh 30.12 in1020.0 mb 0.00 in0.0 mm 0.00 in0.0 mm 0.00 in0.0 mm
07:30 AM 38.8°F3.8°C 25.7°F-3.5°C 59% 9.0 mph E14.5 kmh E 17.2 mph27.7 kmh 30.12 in1020.0 mb 0.00 in0.0 mm 0.00 in0.0 mm 0.00 in0.0 mm
07:45 AM 40.1°F4.5°C 26.1°F-3.3°C 57% 11.0 mph SE17.7 kmh SE 27.9 mph44.9 kmh 30.12 in1020.0 mb 0.00 in0.0 mm 0.00 in0.0 mm 0.00 in0.0 mm
08:00 AM 42.1°F5.6°C 26.2°F-3.2°C 53% 9.9 mph ESE15.9 kmh ESE 18.3 mph29.5 kmh 30.09 in1019.0 mb 0.00 in0.0 mm 0.00 in0.0 mm 0.00 in0.0 mm
08:18 AM 42.1°F5.6°C 26.2°F-3.2°C 53% 11.0 mph SE17.7 kmh SE 26.1 mph42.0 kmh 30.09 in1019.0 mb 0.00 in0.0 mm 0.00 in0.0 mm 0.00 in0.0 mm
08:31 AM 42.1°F5.6°C 26.2°F-3.2°C 53% 10.0 mph SE16.1 kmh SE 30.8 mph49.6 kmh 30.09 in1019.0 mb 0.00 in0.0 mm 0.00 in0.0 mm 0.00 in0.0 mm
08:45 AM 43.9°F6.6°C 26.9°F-2.8°C 51% 9.5 mph SE15.3 kmh SE 19.7 mph31.7 kmh 30.09 in1019.0 mb 0.00 in0.0 mm 0.00 in0.0 mm 0.00 in0.0 mm
09:00 AM 44.4°F6.9°C 26.9°F-2.8°C 50% 11.4 mph SE18.3 kmh SE 23.6 mph38.0 kmh 30.07 in1018.3 mb 0.00 in0.0 mm 0.00 in0.0 mm 0.00 in0.0 mm
09:15 AM 45.5°F7.5°C 26.9°F-2.8°C 48% 11.4 mph SE18.3 kmh SE 27.9 mph44.9 kmh 30.07 in1018.3 mb 0.00 in0.0 mm 0.00 in0.0 mm 0.00 in0.0 mm
09:30 AM 45.5°F7.5°C 25.9°F-3.4°C 46% 16.1 mph SE25.9 kmh SE 28.3 mph45.5 kmh 30.04 in1017.3 mb 0.00 in0.0 mm 0.00 in0.0 mm 0.00 in0.0 mm
09:45 AM 46.4°F8.0°C 26.7°F-2.9°C 46% 9.6 mph SE15.4 kmh SE 22.2 mph35.7 kmh 30.07 in1018.3 mb 0.00 in0.0 mm 0.00 in0.0 mm 0.00 in0.0 mm
10:00 AM 46.4°F8.0°C 26.2°F-3.2°C 45% 15.5 mph SE24.9 kmh SE 37.6 mph60.5 kmh 30.07 in1018.3 mb 0.00 in0.0 mm 0.00 in0.0 mm 0.00 in0.0 mm
10:15 AM 46.6°F8.1°C 26.4°F-3.1°C 45% 12.3 mph SE19.8 kmh SE 27.9 mph44.9 kmh 30.07 in1018.3 mb 0.00 in0.0 mm 0.00 in0.0 mm 0.00 in0.0 mm
10:30 AM 47.3°F8.5°C 26.5°F-3.1°C 44% 14.0 mph SE22.5 kmh SE 31.5 mph50.7 kmh 30.07 in1018.3 mb 0.00 in0.0 mm 0.00 in0.0 mm 0.00 in0.0 mm
10:45 AM 47.7°F8.7°C 26.2°F-3.2°C 43% 13.6 mph SE21.9 kmh SE 31.5 mph50.7 kmh 30.07 in1018.3 mb 0.00 in0.0 mm 0.00 in0.0 mm 0.00 in0.0 mm
11:00 AM 48.2°F9.0°C 26.2°F-3.2°C 42% 13.7 mph SE22.0 kmh SE 30.4 mph48.9 kmh 30.04 in1017.3 mb 0.00 in0.0 mm 0.00 in0.0 mm 0.00 in0.0 mm
11:15 AM 49.1°F9.5°C 27.0°F-2.8°C 42% 12.8 mph SE20.6 kmh SE 25.4 mph40.9 kmh 30.04 in1017.3 mb 0.00 in0.0 mm 0.00 in0.0 mm 0.00 in0.0 mm
11:30 AM 49.5°F9.7°C 26.7°F-2.9°C 41% 13.7 mph ESE22.0 kmh ESE 32.2 mph51.8 kmh 30.01 in1016.3 mb 0.00 in0.0 mm 0.00 in0.0 mm 0.00 in0.0 mm
11:45 AM 50.2°F10.1°C 27.4°F-2.6°C 41% 11.1 mph SE17.9 kmh SE 27.9 mph44.9 kmh 30.01 in1016.3 mb 0.00 in0.0 mm 0.00 in0.0 mm 0.00 in0.0 mm
12:00 PM 50.0°F10.0°C 26.0°F-3.3°C 39% 16.8 mph SE27.0 kmh SE 35.4 mph57.0 kmh 30.01 in1016.3 mb 0.00 in0.0 mm 0.00 in0.0 mm 0.00 in0.0 mm
12:15 PM 50.0°F10.0°C 26.0°F-3.3°C 39% 17.3 mph ESE27.8 kmh ESE 39.0 mph62.8 kmh 30.01 in1016.3 mb 0.00 in0.0 mm 0.00 in0.0 mm 0.00 in0.0 mm
12:30 PM 50.0°F10.0°C 26.0°F-3.3°C 39% 18.6 mph ESE29.9 kmh ESE 35.8 mph57.6 kmh 30.01 in1016.3 mb 0.00 in0.0 mm 0.00 in0.0 mm 0.00 in0.0 mm
12:45 PM 50.2°F10.1°C 26.1°F-3.3°C 39% 16.4 mph ESE26.4 kmh ESE 32.2 mph51.8 kmh 29.98 in1015.2 mb 0.00 in0.0 mm 0.00 in0.0 mm 0.00 in0.0 mm
01:00 PM 50.7°F10.4°C 26.6°F-3.0°C 39% 14.3 mph ESE23.0 kmh ESE 33.6 mph54.1 kmh 29.95 in1014.2 mb 0.00 in0.0 mm 0.00 in0.0 mm 0.00 in0.0 mm
01:15 PM 50.9°F10.5°C 26.2°F-3.2°C 38% 14.9 mph ESE24.0 kmh ESE 28.3 mph45.5 kmh 29.95 in1014.2 mb 0.00 in0.0 mm 0.00 in0.0 mm 0.00 in0.0 mm
01:30 PM 51.3°F10.7°C 26.5°F-3.1°C 38% 12.4 mph ESE20.0 kmh ESE 26.8 mph43.1 kmh 29.95 in1014.2 mb 0.00 in0.0 mm 0.00 in0.0 mm 0.00 in0.0 mm
01:45 PM 50.9°F10.5°C 26.2°F-3.2°C 38% 14.9 mph SE24.0 kmh SE 31.5 mph50.7 kmh 29.95 in1014.2 mb 0.00 in0.0 mm 0.00 in0.0 mm 0.00 in0.0 mm
02:00 PM 51.1°F10.6°C 26.3°F-3.2°C 38% 14.5 mph ESE23.3 kmh ESE 24.7 mph39.8 kmh 29.95 in1014.2 mb 0.00 in0.0 mm 0.00 in0.0 mm 0.00 in0.0 mm
02:15 PM 50.7°F10.4°C 25.4°F-3.7°C 37% 16.8 mph ESE27.0 kmh ESE 34.0 mph54.7 kmh 29.95 in1014.2 mb 0.00 in0.0 mm 0.00 in0.0 mm 0.00 in0.0 mm
02:30 PM 50.7°F10.4°C 24.0°F-4.4°C 35% 15.3 mph ESE24.6 kmh ESE 31.5 mph50.7 kmh 29.95 in1014.2 mb 0.00 in0.0 mm 0.00 in0.0 mm 0.00 in0.0 mm
02:45 PM 50.0°F10.0°C 22.0°F-5.6°C 33% 15.9 mph ESE25.6 kmh ESE 40.1 mph64.5 kmh 29.92 in1013.2 mb 0.00 in0.0 mm 0.00 in0.0 mm 0.00 in0.0 mm
03:00 PM 49.8°F9.9°C 21.1°F-6.1°C 32% 18.6 mph SE29.9 kmh SE 42.9 mph69.0 kmh 29.92 in1013.2 mb 0.00 in0.0 mm 0.00 in0.0 mm 0.00 in0.0 mm
03:15 PM 49.3°F9.6°C 20.6°F-6.3°C 32% 18.3 mph SE29.5 kmh SE 40.1 mph64.5 kmh 29.92 in1013.2 mb 0.00 in0.0 mm 0.00 in0.0 mm 0.00 in0.0 mm
03:30 PM 49.3°F9.6°C 20.6°F-6.3°C 32% 15.3 mph SE24.6 kmh SE 31.9 mph51.3 kmh 29.92 in1013.2 mb 0.00 in0.0 mm 0.00 in0.0 mm 0.00 in0.0 mm
03:45 PM 48.9°F9.4°C 19.6°F-6.9°C 31% 17.6 mph ESE28.3 kmh ESE 38.7 mph62.3 kmh 29.92 in1013.2 mb 0.00 in0.0 mm 0.00 in0.0 mm 0.00 in0.0 mm
04:00 PM 48.6°F9.2°C 19.3°F-7.1°C 31% 16.9 mph SE27.2 kmh SE 35.8 mph57.6 kmh 29.89 in1012.2 mb 0.00 in0.0 mm 0.00 in0.0 mm 0.00 in0.0 mm
04:32 PM 47.8°F8.8°C 18.6°F-7.4°C 31% 15.1 mph SE24.3 kmh SE 27.9 mph44.9 kmh 29.89 in1012.2 mb 0.00 in0.0 mm 0.00 in0.0 mm 0.00 in0.0 mm
04:45 PM 47.7°F8.7°C 18.5°F-7.5°C 31% 13.3 mph SE21.4 kmh SE 32.2 mph51.8 kmh 29.89 in1012.2 mb 0.00 in0.0 mm 0.00 in0.0 mm 0.00 in0.0 mm
05:00 PM 47.3°F8.5°C 17.4°F-8.1°C 30% 16.5 mph ESE26.6 kmh ESE 32.9 mph52.9 kmh 29.86 in1011.2 mb 0.00 in0.0 mm 0.00 in0.0 mm 0.00 in0.0 mm
05:15 PM 46.2°F7.9°C 17.2°F-8.2°C 31% 16.0 mph SE25.7 kmh SE 44.0 mph70.8 kmh 29.86 in1011.2 mb 0.00 in0.0 mm 0.00 in0.0 mm 0.00 in0.0 mm
05:30 PM 45.9°F7.7°C 16.9°F-8.4°C 31% 14.9 mph SE24.0 kmh SE 28.6 mph46.0 kmh 29.89 in1012.2 mb 0.00 in0.0 mm 0.00 in0.0 mm 0.00 in0.0 mm
05:45 PM 45.3°F7.4°C 16.4°F-8.7°C 31% 14.4 mph SE23.2 kmh SE 26.5 mph42.6 kmh 29.86 in1011.2 mb 0.00 in0.0 mm 0.00 in0.0 mm 0.00 in0.0 mm
06:00 PM 45.0°F7.2°C 16.1°F-8.8°C 31% 14.7 mph ESE23.7 kmh ESE 31.5 mph50.7 kmh 29.89 in1012.2 mb 0.00 in0.0 mm 0.00 in0.0 mm 0.00 in0.0 mm
06:15 PM 44.2°F6.8°C 15.5°F-9.2°C 31% 11.6 mph ESE18.7 kmh ESE 20.8 mph33.5 kmh 29.89 in1012.2 mb 0.00 in0.0 mm 0.00 in0.0 mm 0.00 in0.0 mm
06:30 PM 43.9°F6.6°C 15.2°F-9.3°C 31% 11.6 mph E18.7 kmh E 24.7 mph39.8 kmh 29.89 in1012.2 mb 0.00 in0.0 mm 0.00 in0.0 mm 0.00 in0.0 mm
06:45 PM 43.2°F6.2°C 15.3°F-9.3°C 32% 11.0 mph E17.7 kmh E 23.6 mph38.0 kmh 29.89 in1012.2 mb 0.00 in0.0 mm 0.00 in0.0 mm 0.00 in0.0 mm
07:00 PM 42.6°F5.9°C 14.8°F-9.6°C 32% 9.0 mph E14.5 kmh E 20.0 mph32.2 kmh 29.89 in1012.2 mb 0.00 in0.0 mm 0.00 in0.0 mm 0.00 in0.0 mm
07:15 PM 42.1°F5.6°C 14.3°F-9.8°C 32% 10.0 mph E16.1 kmh E 17.5 mph28.2 kmh 29.89 in1012.2 mb 0.00 in0.0 mm 0.00 in0.0 mm 0.00 in0.0 mm
07:30 PM 41.9°F5.5°C 14.1°F-9.9°C 32% 10.3 mph E16.6 kmh E 19.0 mph30.6 kmh 29.89 in1012.2 mb 0.00 in0.0 mm 0.00 in0.0 mm 0.00 in0.0 mm
07:45 PM 41.5°F5.3°C 14.5°F-9.7°C 33% 10.1 mph E16.3 kmh E 19.7 mph31.7 kmh 29.89 in1012.2 mb 0.00 in0.0 mm 0.00 in0.0 mm 0.00 in0.0 mm
08:00 PM 41.2°F5.1°C 14.2°F-9.9°C 33% 9.8 mph E15.8 kmh E 17.5 mph28.2 kmh 29.86 in1011.2 mb 0.00 in0.0 mm 0.00 in0.0 mm 0.00 in0.0 mm
08:15 PM 41.0°F5.0°C 14.7°F-9.6°C 34% 9.2 mph E14.8 kmh E 17.5 mph28.2 kmh 29.86 in1011.2 mb 0.00 in0.0 mm 0.00 in0.0 mm 0.00 in0.0 mm
08:30 PM 41.0°F5.0°C 14.7°F-9.6°C 34% 10.4 mph E16.7 kmh E 17.2 mph27.7 kmh 29.83 in1010.2 mb 0.00 in0.0 mm 0.00 in0.0 mm 0.00 in0.0 mm
08:45 PM 40.8°F4.9°C 15.2°F-9.3°C 35% 10.6 mph E17.1 kmh E 17.9 mph28.8 kmh 29.83 in1010.2 mb 0.00 in0.0 mm 0.00 in0.0 mm 0.00 in0.0 mm
09:00 PM 41.0°F5.0°C 16.0°F-8.9°C 36% 10.7 mph E17.2 kmh E 20.8 mph33.5 kmh 29.86 in1011.2 mb 0.00 in0.0 mm 0.00 in0.0 mm 0.00 in0.0 mm
09:15 PM 40.8°F4.9°C 16.5°F-8.6°C 37% 9.6 mph E15.4 kmh E 16.8 mph27.0 kmh 29.83 in1010.2 mb 0.00 in0.0 mm 0.00 in0.0 mm 0.00 in0.0 mm
09:30 PM 41.0°F5.0°C 17.3°F-8.2°C 38% 9.5 mph E15.3 kmh E 17.5 mph28.2 kmh 29.83 in1010.2 mb 0.00 in0.0 mm 0.00 in0.0 mm 0.00 in0.0 mm
09:45 PM 41.2°F5.1°C 18.1°F-7.7°C 39% 9.6 mph E15.4 kmh E 20.4 mph32.8 kmh 29.83 in1010.2 mb 0.00 in0.0 mm 0.00 in0.0 mm 0.00 in0.0 mm
10:00 PM 41.5°F5.3°C 19.0°F-7.2°C 40% 11.4 mph E18.3 kmh E 24.7 mph39.8 kmh 29.83 in1010.2 mb 0.00 in0.0 mm 0.00 in0.0 mm 0.00 in0.0 mm
10:15 PM 41.5°F5.3°C 19.6°F-6.9°C 41% 9.9 mph E15.9 kmh E 17.2 mph27.7 kmh 29.80 in1009.1 mb 0.00 in0.0 mm 0.00 in0.0 mm 0.00 in0.0 mm
10:30 PM 41.5°F5.3°C 19.6°F-6.9°C 41% 9.4 mph E15.1 kmh E 19.7 mph31.7 kmh 29.83 in1010.2 mb 0.00 in0.0 mm 0.00 in0.0 mm 0.00 in0.0 mm
10:45 PM 41.5°F5.3°C 19.6°F-6.9°C 41% 9.9 mph E15.9 kmh E 20.0 mph32.2 kmh 29.80 in1009.1 mb 0.00 in0.0 mm 0.00 in0.0 mm 0.00 in0.0 mm
11:00 PM 41.4°F5.2°C 21.6°F-5.8°C 45% 8.4 mph E13.5 kmh E 20.8 mph33.5 kmh 29.86 in1011.2 mb 0.00 in0.0 mm 0.00 in0.0 mm 0.00 in0.0 mm
11:15 PM 41.7°F5.4°C 22.4°F-5.3°C 46% 9.8 mph E15.8 kmh E 19.7 mph31.7 kmh 29.83 in1010.2 mb 0.00 in0.0 mm 0.00 in0.0 mm 0.00 in0.0 mm
11:30 PM 41.9°F5.5°C 22.6°F-5.2°C 46% 10.9 mph E17.5 kmh E 24.3 mph39.1 kmh 29.83 in1010.2 mb 0.00 in0.0 mm 0.00 in0.0 mm 0.00 in0.0 mm
11:45 PM 41.9°F5.5°C 22.6°F-5.2°C 46% 9.2 mph E14.8 kmh E 16.8 mph27.0 kmh 29.83 in1010.2 mb 0.00 in0.0 mm 0.00 in0.0 mm 0.00 in0.0 mm